sensor_id;sensor_type;location;lat;lon;timestamp;pressure;altitude;pressure_sealevel;temperature;humidity
50682;BME280;36779;52.168;20.878;2023-05-29T00:01:46;100820.96;;;9.25;48.34
50682;BME280;36779;52.168;20.878;2023-05-29T00:04:17;100820.95;;;9.18;48.42
50682;BME280;36779;52.168;20.878;2023-05-29T00:06:50;100818.82;;;9.12;48.44
50682;BME280;36779;52.168;20.878;2023-05-29T00:09:20;100818.55;;;9.07;48.68
50682;BME280;36779;52.168;20.878;2023-05-29T00:11:49;100818.81;;;9.04;48.64
50682;BME280;36779;52.168;20.878;2023-05-29T00:14:20;100815.87;;;9.02;48.81
50682;BME280;36779;52.168;20.878;2023-05-29T00:16:52;100812.77;;;8.99;48.77
50682;BME280;36779;52.168;20.878;2023-05-29T00:19:26;100811.48;;;8.95;48.91
50682;BME280;36779;52.168;20.878;2023-05-29T00:21:59;100811.37;;;8.92;48.96
50682;BME280;36779;52.168;20.878;2023-05-29T00:24:32;100806.22;;;8.89;49.11
50682;BME280;36779;52.168;20.878;2023-05-29T00:27:02;100806.57;;;8.87;49.23
50682;BME280;36779;52.168;20.878;2023-05-29T00:29:31;100809.46;;;8.88;49.42
50682;BME280;36779;52.168;20.878;2023-05-29T00:32:04;100811.34;;;8.91;49.58
50682;BME280;36779;52.168;20.878;2023-05-29T00:34:34;100813.11;;;8.93;49.62
50682;BME280;36779;52.168;20.878;2023-05-29T00:37:06;100813.35;;;8.92;49.78
50682;BME280;36779;52.168;20.878;2023-05-29T00:39:35;100812.98;;;8.91;49.78
50682;BME280;36779;52.168;20.878;2023-05-29T00:42:06;100811.91;;;8.89;49.95
50682;BME280;36779;52.168;20.878;2023-05-29T00:44:35;100814.70;;;8.85;49.94
50682;BME280;36779;52.168;20.878;2023-05-29T00:47:08;100812.97;;;8.83;50.17
50682;BME280;36779;52.168;20.878;2023-05-29T00:49:38;100813.60;;;8.88;50.23
50682;BME280;36779;52.168;20.878;2023-05-29T00:52:10;100813.86;;;8.89;50.29
50682;BME280;36779;52.168;20.878;2023-05-29T00:54:44;100812.93;;;8.91;50.36
50682;BME280;36779;52.168;20.878;2023-05-29T00:57:18;100812.86;;;8.88;50.51
50682;BME280;36779;52.168;20.878;2023-05-29T00:59:51;100810.59;;;8.84;50.41
50682;BME280;36779;52.168;20.878;2023-05-29T01:02:21;100809.34;;;8.80;50.41
50682;BME280;36779;52.168;20.878;2023-05-29T01:04:50;100810.73;;;8.77;50.49
50682;BME280;36779;52.168;20.878;2023-05-29T01:07:29;100809.24;;;8.75;50.63
50682;BME280;36779;52.168;20.878;2023-05-29T01:10:00;100809.77;;;8.75;50.68
50682;BME280;36779;52.168;20.878;2023-05-29T01:12:40;100815.09;;;8.69;50.82
50682;BME280;36779;52.168;20.878;2023-05-29T01:15:34;100818.88;;;8.65;50.78
50682;BME280;36779;52.168;20.878;2023-05-29T01:18:19;100818.36;;;8.61;51.04
50682;BME280;36779;52.168;20.878;2023-05-29T01:21:06;100815.98;;;8.54;51.02
50682;BME280;36779;52.168;20.878;2023-05-29T01:23:56;100813.71;;;8.47;50.99
50682;BME280;36779;52.168;20.878;2023-05-29T01:26:50;100808.66;;;8.42;51.07
50682;BME280;36779;52.168;20.878;2023-05-29T01:29:25;100808.09;;;8.39;51.22
50682;BME280;36779;52.168;20.878;2023-05-29T01:31:56;100812.17;;;8.35;51.32
50682;BME280;36779;52.168;20.878;2023-05-29T01:34:35;100809.05;;;8.30;51.37
50682;BME280;36779;52.168;20.878;2023-05-29T01:37:09;100810.65;;;8.30;51.43
50682;BME280;36779;52.168;20.878;2023-05-29T01:39:38;100813.96;;;8.31;51.51
50682;BME280;36779;52.168;20.878;2023-05-29T01:42:08;100812.59;;;8.30;51.63
50682;BME280;36779;52.168;20.878;2023-05-29T01:44:38;100816.86;;;8.30;51.72
50682;BME280;36779;52.168;20.878;2023-05-29T01:47:10;100812.59;;;8.32;51.88
50682;BME280;36779;52.168;20.878;2023-05-29T01:49:54;100815.55;;;8.35;51.90
50682;BME280;36779;52.168;20.878;2023-05-29T01:52:31;100817.09;;;8.35;51.98
50682;BME280;36779;52.168;20.878;2023-05-29T01:55:08;100817.04;;;8.36;52.07
50682;BME280;36779;52.168;20.878;2023-05-29T01:57:46;100811.27;;;8.39;52.26
50682;BME280;36779;52.168;20.878;2023-05-29T02:00:26;100808.66;;;8.39;52.26
50682;BME280;36779;52.168;20.878;2023-05-29T02:02:58;100808.83;;;8.35;52.24
50682;BME280;36779;52.168;20.878;2023-05-29T02:05:28;100807.33;;;8.30;52.18
50682;BME280;36779;52.168;20.878;2023-05-29T02:07:58;100804.27;;;8.22;52.28
50682;BME280;36779;52.168;20.878;2023-05-29T02:10:29;100802.41;;;8.15;52.26
50682;BME280;36779;52.168;20.878;2023-05-29T02:13:03;100800.91;;;8.10;52.25
50682;BME280;36779;52.168;20.878;2023-05-29T02:15:34;100795.98;;;8.06;52.46
50682;BME280;36779;52.168;20.878;2023-05-29T02:18:05;100795.08;;;8.04;52.40
50682;BME280;36779;52.168;20.878;2023-05-29T02:20:34;100786.50;;;8.03;52.62
50682;BME280;36779;52.168;20.878;2023-05-29T02:23:07;100792.56;;;8.02;52.62
50682;BME280;36779;52.168;20.878;2023-05-29T02:25:38;100788.23;;;8.01;52.67
50682;BME280;36779;52.168;20.878;2023-05-29T02:28:10;100784.98;;;8.00;52.78
50682;BME280;36779;52.168;20.878;2023-05-29T02:30:44;100783.45;;;7.99;52.74
50682;BME280;36779;52.168;20.878;2023-05-29T02:33:12;100783.71;;;7.96;52.88
50682;BME280;36779;52.168;20.878;2023-05-29T02:35:41;100783.37;;;7.90;52.84
50682;BME280;36779;52.168;20.878;2023-05-29T02:38:11;100784.23;;;7.87;53.05
50682;BME280;36779;52.168;20.878;2023-05-29T02:40:42;100779.77;;;7.85;53.05
50682;BME280;36779;52.168;20.878;2023-05-29T02:43:14;100780.66;;;7.83;53.16
50682;BME280;36779;52.168;20.878;2023-05-29T02:45:43;100779.21;;;7.79;53.15
50682;BME280;36779;52.168;20.878;2023-05-29T02:48:12;100782.89;;;7.75;53.20
50682;BME280;36779;52.168;20.878;2023-05-29T02:50:47;100779.27;;;7.72;53.24
50682;BME280;36779;52.168;20.878;2023-05-29T02:53:16;100780.17;;;7.72;53.24
50682;BME280;36779;52.168;20.878;2023-05-29T02:55:49;100777.91;;;7.74;53.38
50682;BME280;36779;52.168;20.878;2023-05-29T02:58:19;100781.70;;;7.77;53.52
50682;BME280;36779;52.168;20.878;2023-05-29T03:00:51;100781.59;;;7.78;53.53
50682;BME280;36779;52.168;20.878;2023-05-29T03:03:30;100784.66;;;7.79;53.65
50682;BME280;36779;52.168;20.878;2023-05-29T03:05:59;100787.40;;;7.78;53.56
50682;BME280;36779;52.168;20.878;2023-05-29T03:08:31;100787.12;;;7.77;53.70
50682;BME280;36779;52.168;20.878;2023-05-29T03:11:01;100790.42;;;7.80;53.85
50682;BME280;36779;52.168;20.878;2023-05-29T03:13:33;100791.46;;;7.85;53.91
50682;BME280;36779;52.168;20.878;2023-05-29T03:16:07;100789.92;;;7.94;54.08
50682;BME280;36779;52.168;20.878;2023-05-29T03:18:42;100783.77;;;8.04;54.26
50682;BME280;36779;52.168;20.878;2023-05-29T03:21:13;100786.30;;;8.13;54.15
50682;BME280;36779;52.168;20.878;2023-05-29T03:23:42;100789.25;;;8.17;54.17
50682;BME280;36779;52.168;20.878;2023-05-29T03:26:17;100793.17;;;8.28;54.34
50682;BME280;36779;52.168;20.878;2023-05-29T03:28:46;100791.06;;;8.31;54.23
50682;BME280;36779;52.168;20.878;2023-05-29T03:31:16;100788.64;;;8.33;54.26
50682;BME280;36779;52.168;20.878;2023-05-29T03:33:49;100793.41;;;8.35;54.36
50682;BME280;36779;52.168;20.878;2023-05-29T03:36:42;100794.66;;;8.36;54.26
50682;BME280;36779;52.168;20.878;2023-05-29T03:39:14;100798.92;;;8.36;54.46
50682;BME280;36779;52.168;20.878;2023-05-29T03:41:43;100801.11;;;8.40;54.40
50682;BME280;36779;52.168;20.878;2023-05-29T03:44:16;100805.02;;;8.48;54.53
50682;BME280;36779;52.168;20.878;2023-05-29T03:46:45;100802.19;;;8.54;54.54
50682;BME280;36779;52.168;20.878;2023-05-29T03:49:17;100794.64;;;8.60;54.66
50682;BME280;36779;52.168;20.878;2023-05-29T03:51:47;100798.33;;;8.66;54.69
50682;BME280;36779;52.168;20.878;2023-05-29T03:54:20;100799.71;;;8.73;54.85
50682;BME280;36779;52.168;20.878;2023-05-29T03:56:56;100799.92;;;8.80;55.00
50682;BME280;36779;52.168;20.878;2023-05-29T03:59:28;100803.30;;;8.88;55.08
50682;BME280;36779;52.168;20.878;2023-05-29T04:01:59;100804.36;;;8.99;55.23
50682;BME280;36779;52.168;20.878;2023-05-29T04:04:29;100807.48;;;9.27;55.46
50682;BME280;36779;52.168;20.878;2023-05-29T04:06:59;100806.84;;;9.49;55.37
50682;BME280;36779;52.168;20.878;2023-05-29T04:09:29;100814.42;;;9.81;55.62
50682;BME280;36779;52.168;20.878;2023-05-29T04:11:59;100816.66;;;10.24;55.98
50682;BME280;36779;52.168;20.878;2023-05-29T04:14:34;100815.20;;;10.68;56.16
50682;BME280;36779;52.168;20.878;2023-05-29T04:17:03;100818.25;;;11.09;56.11
50682;BME280;36779;52.168;20.878;2023-05-29T04:19:33;100818.59;;;11.65;56.49
50682;BME280;36779;52.168;20.878;2023-05-29T04:22:02;100818.90;;;12.21;56.46
50682;BME280;36779;52.168;20.878;2023-05-29T04:24:35;100815.77;;;12.34;55.70
50682;BME280;36779;52.168;20.878;2023-05-29T04:27:05;100815.98;;;12.32;55.20
50682;BME280;36779;52.168;20.878;2023-05-29T04:29:35;100814.55;;;12.31;55.05
50682;BME280;36779;52.168;20.878;2023-05-29T04:32:09;100815.44;;;12.39;55.32
50682;BME280;36779;52.168;20.878;2023-05-29T04:34:41;100814.08;;;12.57;55.39
50682;BME280;36779;52.168;20.878;2023-05-29T04:37:16;100820.21;;;12.68;55.21
50682;BME280;36779;52.168;20.878;2023-05-29T04:39:45;100818.69;;;12.80;55.41
50682;BME280;36779;52.168;20.878;2023-05-29T04:42:22;100814.11;;;13.19;55.84
50682;BME280;36779;52.168;20.878;2023-05-29T04:44:56;100816.62;;;14.10;56.83
50682;BME280;36779;52.168;20.878;2023-05-29T04:47:30;100815.25;;;15.14;57.01
50682;BME280;36779;52.168;20.878;2023-05-29T04:50:01;100818.95;;;16.18;56.94
50682;BME280;36779;52.168;20.878;2023-05-29T04:52:30;100814.59;;;17.16;56.89
50682;BME280;36779;52.168;20.878;2023-05-29T04:55:02;100812.31;;;18.12;56.48
50682;BME280;36779;52.168;20.878;2023-05-29T04:57:36;100806.16;;;19.03;56.03
50682;BME280;36779;52.168;20.878;2023-05-29T05:00:16;100808.20;;;19.84;55.33
50682;BME280;36779;52.168;20.878;2023-05-29T05:02:47;100809.19;;;20.57;54.63
50682;BME280;36779;52.168;20.878;2023-05-29T05:05:16;100804.78;;;21.21;53.97
50682;BME280;36779;52.168;20.878;2023-05-29T05:07:47;100805.27;;;21.82;53.36
50682;BME280;36779;52.168;20.878;2023-05-29T05:10:19;100805.78;;;22.43;52.85
50682;BME280;36779;52.168;20.878;2023-05-29T05:12:50;100804.52;;;22.87;51.71
50682;BME280;36779;52.168;20.878;2023-05-29T05:15:21;100804.91;;;23.28;51.24
50682;BME280;36779;52.168;20.878;2023-05-29T05:17:50;100803.91;;;23.87;51.10
50682;BME280;36779;52.168;20.878;2023-05-29T05:20:19;100806.59;;;24.58;50.90
50682;BME280;36779;52.168;20.878;2023-05-29T05:22:56;100806.61;;;24.92;49.58
50682;BME280;36779;52.168;20.878;2023-05-29T05:25:25;100804.73;;;25.01;48.88
50682;BME280;36779;52.168;20.878;2023-05-29T05:27:58;100803.16;;;25.04;48.25
50682;BME280;36779;52.168;20.878;2023-05-29T05:30:28;100803.57;;;25.22;47.98
50682;BME280;36779;52.168;20.878;2023-05-29T05:32:58;100800.56;;;25.62;48.11
50682;BME280;36779;52.168;20.878;2023-05-29T05:35:29;100805.28;;;26.09;47.83
50682;BME280;36779;52.168;20.878;2023-05-29T05:37:58;100806.73;;;26.44;47.31
50682;BME280;36779;52.168;20.878;2023-05-29T05:40:28;100808.98;;;26.58;46.27
50682;BME280;36779;52.168;20.878;2023-05-29T05:43:01;100808.05;;;26.76;46.09
50682;BME280;36779;52.168;20.878;2023-05-29T05:46:05;100808.54;;;26.93;45.25
50682;BME280;36779;52.168;20.878;2023-05-29T05:48:35;100803.89;;;27.01;44.78
50682;BME280;36779;52.168;20.878;2023-05-29T05:51:04;100802.64;;;27.20;44.54
50682;BME280;36779;52.168;20.878;2023-05-29T05:53:35;100805.34;;;27.57;44.86
50682;BME280;36779;52.168;20.878;2023-05-29T05:56:05;100805.63;;;27.83;43.93
50682;BME280;36779;52.168;20.878;2023-05-29T05:58:35;100806.00;;;28.07;44.10
50682;BME280;36779;52.168;20.878;2023-05-29T06:01:04;100807.17;;;28.42;43.51
50682;BME280;36779;52.168;20.878;2023-05-29T06:03:37;100813.20;;;28.69;43.35
50682;BME280;36779;52.168;20.878;2023-05-29T06:06:08;100815.79;;;28.83;42.58
50682;BME280;36779;52.168;20.878;2023-05-29T06:08:41;100807.55;;;28.47;41.67
50682;BME280;36779;52.168;20.878;2023-05-29T06:11:10;100804.38;;;27.98;41.46
50682;BME280;36779;52.168;20.878;2023-05-29T06:13:39;100805.89;;;27.73;41.75
50682;BME280;36779;52.168;20.878;2023-05-29T06:16:17;100809.86;;;28.00;42.00
50682;BME280;36779;52.168;20.878;2023-05-29T06:18:47;100806.58;;;28.01;41.54
50682;BME280;36779;52.168;20.878;2023-05-29T06:21:19;100803.20;;;27.45;40.63
50682;BME280;36779;52.168;20.878;2023-05-29T06:23:57;100806.58;;;26.57;39.81
50682;BME280;36779;52.168;20.878;2023-05-29T06:26:27;100806.33;;;25.71;39.86
50682;BME280;36779;52.168;20.878;2023-05-29T06:28:59;100810.79;;;25.10;40.01
50682;BME280;36779;52.168;20.878;2023-05-29T06:31:30;100813.59;;;24.60;40.11
50682;BME280;36779;52.168;20.878;2023-05-29T06:34:02;100809.67;;;24.07;40.33
50682;BME280;36779;52.168;20.878;2023-05-29T06:36:31;100806.23;;;23.70;40.29
50682;BME280;36779;52.168;20.878;2023-05-29T06:39:02;100806.36;;;23.29;40.32
50682;BME280;36779;52.168;20.878;2023-05-29T06:41:31;100806.59;;;23.00;40.68
50682;BME280;36779;52.168;20.878;2023-05-29T06:44:00;100802.78;;;22.69;40.63
50682;BME280;36779;52.168;20.878;2023-05-29T06:46:30;100805.25;;;22.43;40.80
50682;BME280;36779;52.168;20.878;2023-05-29T06:49:00;100800.45;;;22.12;40.69
50682;BME280;36779;52.168;20.878;2023-05-29T06:51:34;100801.98;;;21.88;40.78
50682;BME280;36779;52.168;20.878;2023-05-29T06:54:03;100803.68;;;21.72;40.82
50682;BME280;36779;52.168;20.878;2023-05-29T06:56:36;100804.10;;;21.48;40.85
50682;BME280;36779;52.168;20.878;2023-05-29T06:59:06;100803.91;;;21.24;40.77
50682;BME280;36779;52.168;20.878;2023-05-29T07:01:35;100807.73;;;21.02;40.73
50682;BME280;36779;52.168;20.878;2023-05-29T07:04:05;100802.89;;;20.79;40.69
50682;BME280;36779;52.168;20.878;2023-05-29T07:06:35;100803.82;;;20.64;40.68
50682;BME280;36779;52.168;20.878;2023-05-29T07:09:04;100804.89;;;20.73;40.89
50682;BME280;36779;52.168;20.878;2023-05-29T07:11:32;100807.44;;;20.96;41.03
50682;BME280;36779;52.168;20.878;2023-05-29T07:14:01;100810.80;;;21.13;40.89
50682;BME280;36779;52.168;20.878;2023-05-29T07:16:33;100810.76;;;21.13;40.85
50682;BME280;36779;52.168;20.878;2023-05-29T07:19:05;100815.47;;;21.03;40.68
50682;BME280;36779;52.168;20.878;2023-05-29T07:21:37;100817.30;;;20.94;40.77
50682;BME280;36779;52.168;20.878;2023-05-29T07:24:07;100816.64;;;20.86;40.78
50682;BME280;36779;52.168;20.878;2023-05-29T07:26:37;100822.96;;;20.71;40.62
50682;BME280;36779;52.168;20.878;2023-05-29T07:29:08;100822.58;;;20.62;40.66
50682;BME280;36779;52.168;20.878;2023-05-29T07:31:39;100824.50;;;20.57;40.75
50682;BME280;36779;52.168;20.878;2023-05-29T07:34:09;100822.30;;;20.55;40.93
50682;BME280;36779;52.168;20.878;2023-05-29T07:36:57;100815.49;;;20.63;41.10
50682;BME280;36779;52.168;20.878;2023-05-29T07:39:27;100815.27;;;20.76;41.11
50682;BME280;36779;52.168;20.878;2023-05-29T07:41:56;100819.53;;;20.77;41.05
50682;BME280;36779;52.168;20.878;2023-05-29T07:44:27;100815.09;;;20.82;41.02
50682;BME280;36779;52.168;20.878;2023-05-29T07:46:58;100815.98;;;20.87;41.02
50682;BME280;36779;52.168;20.878;2023-05-29T07:49:48;100816.79;;;20.94;41.13
50682;BME280;36779;52.168;20.878;2023-05-29T07:52:19;100818.15;;;20.97;40.98
50682;BME280;36779;52.168;20.878;2023-05-29T07:54:49;100814.52;;;20.92;40.84
50682;BME280;36779;52.168;20.878;2023-05-29T07:57:20;100813.38;;;20.90;41.04
50682;BME280;36779;52.168;20.878;2023-05-29T07:59:50;100813.77;;;20.87;41.04
50682;BME280;36779;52.168;20.878;2023-05-29T08:02:22;100814.60;;;20.86;40.99
50682;BME280;36779;52.168;20.878;2023-05-29T08:04:57;100813.86;;;20.89;40.95
50682;BME280;36779;52.168;20.878;2023-05-29T08:07:30;100818.10;;;20.91;40.93
50682;BME280;36779;52.168;20.878;2023-05-29T08:10:00;100822.02;;;20.95;40.92
50682;BME280;36779;52.168;20.878;2023-05-29T08:12:29;100820.44;;;20.96;40.84
50682;BME280;36779;52.168;20.878;2023-05-29T08:14:59;100816.66;;;21.00;40.92
50682;BME280;36779;52.168;20.878;2023-05-29T08:17:32;100814.84;;;21.04;40.88
50682;BME280;36779;52.168;20.878;2023-05-29T08:20:01;100816.55;;;21.04;40.74
50682;BME280;36779;52.168;20.878;2023-05-29T08:22:31;100817.40;;;21.07;40.72
50682;BME280;36779;52.168;20.878;2023-05-29T08:25:02;100812.95;;;21.10;40.80
50682;BME280;36779;52.168;20.878;2023-05-29T08:27:32;100815.48;;;21.12;40.57
50682;BME280;36779;52.168;20.878;2023-05-29T08:30:01;100815.89;;;21.04;40.44
50682;BME280;36779;52.168;20.878;2023-05-29T08:32:30;100816.55;;;21.09;40.56
50682;BME280;36779;52.168;20.878;2023-05-29T08:34:59;100814.13;;;21.15;40.61
50682;BME280;36779;52.168;20.878;2023-05-29T08:37:31;100815.64;;;21.23;40.54
50682;BME280;36779;52.168;20.878;2023-05-29T08:40:05;100819.15;;;21.26;40.61
50682;BME280;36779;52.168;20.878;2023-05-29T08:42:45;100816.74;;;21.43;40.62
50682;BME280;36779;52.168;20.878;2023-05-29T08:45:16;100819.30;;;21.68;40.63
50682;BME280;36779;52.168;20.878;2023-05-29T08:47:50;100820.39;;;21.96;40.75
50682;BME280;36779;52.168;20.878;2023-05-29T08:50:21;100822.14;;;22.26;40.74
50682;BME280;36779;52.168;20.878;2023-05-29T08:52:51;100819.27;;;22.51;40.51
50682;BME280;36779;52.168;20.878;2023-05-29T08:55:20;100820.17;;;22.67;40.30
50682;BME280;36779;52.168;20.878;2023-05-29T08:57:49;100814.80;;;22.90;40.34
50682;BME280;36779;52.168;20.878;2023-05-29T09:00:19;100814.11;;;23.14;40.12
50682;BME280;36779;52.168;20.878;2023-05-29T09:02:50;100808.80;;;23.33;39.91
50682;BME280;36779;52.168;20.878;2023-05-29T09:05:22;100805.74;;;23.52;39.82
50682;BME280;36779;52.168;20.878;2023-05-29T09:07:51;100803.61;;;23.80;39.79
50682;BME280;36779;52.168;20.878;2023-05-29T09:10:20;100804.14;;;24.15;39.82
50682;BME280;36779;52.168;20.878;2023-05-29T09:12:55;100806.74;;;24.45;39.55
50682;BME280;36779;52.168;20.878;2023-05-29T09:15:24;100805.32;;;24.62;39.35
50682;BME280;36779;52.168;20.878;2023-05-29T09:17:57;100803.89;;;24.92;39.30
50682;BME280;36779;52.168;20.878;2023-05-29T09:20:28;100801.48;;;25.14;38.98
50682;BME280;36779;52.168;20.878;2023-05-29T09:22:58;100806.94;;;25.20;38.68
50682;BME280;36779;52.168;20.878;2023-05-29T09:25:30;100802.74;;;25.28;38.57
50682;BME280;36779;52.168;20.878;2023-05-29T09:28:04;100796.70;;;25.40;38.35
50682;BME280;36779;52.168;20.878;2023-05-29T09:30:37;100796.79;;;25.42;38.19
50682;BME280;36779;52.168;20.878;2023-05-29T09:33:09;100793.80;;;25.55;38.14
50682;BME280;36779;52.168;20.878;2023-05-29T09:35:39;100791.14;;;25.68;38.10
50682;BME280;36779;52.168;20.878;2023-05-29T09:38:10;100791.20;;;25.79;38.09
50682;BME280;36779;52.168;20.878;2023-05-29T09:40:45;100792.10;;;25.89;37.77
50682;BME280;36779;52.168;20.878;2023-05-29T09:43:16;100789.20;;;25.97;37.65
50682;BME280;36779;52.168;20.878;2023-05-29T09:45:47;100786.80;;;26.07;37.56
50682;BME280;36779;52.168;20.878;2023-05-29T09:48:18;100783.48;;;26.18;37.47
50682;BME280;36779;52.168;20.878;2023-05-29T09:50:47;100781.56;;;26.27;37.33
50682;BME280;36779;52.168;20.878;2023-05-29T09:53:21;100782.88;;;26.46;37.32
50682;BME280;36779;52.168;20.878;2023-05-29T09:55:56;100778.59;;;26.65;37.35
50682;BME280;36779;52.168;20.878;2023-05-29T09:58:30;100783.11;;;26.76;37.15
50682;BME280;36779;52.168;20.878;2023-05-29T10:01:02;100782.90;;;26.83;36.98
50682;BME280;36779;52.168;20.878;2023-05-29T10:03:31;100786.71;;;26.87;36.79
50682;BME280;36779;52.168;20.878;2023-05-29T10:06:05;100782.30;;;26.83;36.63
50682;BME280;36779;52.168;20.878;2023-05-29T10:08:38;100773.23;;;27.05;36.89
50682;BME280;36779;52.168;20.878;2023-05-29T10:11:09;100775.06;;;27.37;36.74
50682;BME280;36779;52.168;20.878;2023-05-29T10:13:45;100779.23;;;27.59;36.53
50682;BME280;36779;52.168;20.878;2023-05-29T10:16:20;100777.96;;;27.76;36.34
50682;BME280;36779;52.168;20.878;2023-05-29T10:18:54;100778.53;;;27.88;36.20
50682;BME280;36779;52.168;20.878;2023-05-29T10:21:26;100776.27;;;27.85;35.72
50682;BME280;36779;52.168;20.878;2023-05-29T10:23:56;100773.78;;;27.79;35.81
50682;BME280;36779;52.168;20.878;2023-05-29T10:26:28;100774.75;;;27.88;35.69
50682;BME280;36779;52.168;20.878;2023-05-29T10:29:05;100775.63;;;27.91;35.67
50682;BME280;36779;52.168;20.878;2023-05-29T10:31:50;100771.98;;;27.94;35.42
50682;BME280;36779;52.168;20.878;2023-05-29T10:34:36;100771.86;;;28.06;35.47
50682;BME280;36779;52.168;20.878;2023-05-29T10:37:18;100768.80;;;28.31;35.51
50682;BME280;36779;52.168;20.878;2023-05-29T10:39:49;100765.73;;;28.51;35.24
50682;BME280;36779;52.168;20.878;2023-05-29T10:42:43;100767.05;;;28.52;34.90
50682;BME280;36779;52.168;20.878;2023-05-29T10:45:49;100769.71;;;28.43;34.74
50682;BME280;36779;52.168;20.878;2023-05-29T10:48:39;100767.58;;;28.07;34.26
50682;BME280;36779;52.168;20.878;2023-05-29T10:51:23;100765.89;;;27.92;34.49
50682;BME280;36779;52.168;20.878;2023-05-29T10:53:53;100764.79;;;27.93;34.34
50682;BME280;36779;52.168;20.878;2023-05-29T10:56:28;100762.08;;;27.94;34.35
50682;BME280;36779;52.168;20.878;2023-05-29T10:59:00;100758.91;;;28.02;34.32
50682;BME280;36779;52.168;20.878;2023-05-29T11:01:33;100755.16;;;28.14;34.37
50682;BME280;36779;52.168;20.878;2023-05-29T11:04:30;100750.86;;;28.29;34.19
50682;BME280;36779;52.168;20.878;2023-05-29T11:07:01;100751.35;;;28.27;34.16
50682;BME280;36779;52.168;20.878;2023-05-29T11:09:39;100748.11;;;28.53;34.26
50682;BME280;36779;52.168;20.878;2023-05-29T11:12:16;100747.98;;;28.78;34.20
50682;BME280;36779;52.168;20.878;2023-05-29T11:14:55;100741.95;;;29.03;34.14
50682;BME280;36779;52.168;20.878;2023-05-29T11:17:45;100747.30;;;29.21;33.86
50682;BME280;36779;52.168;20.878;2023-05-29T11:20:33;100745.06;;;29.33;33.79
50682;BME280;36779;52.168;20.878;2023-05-29T11:23:05;100740.64;;;29.32;33.58
50682;BME280;36779;52.168;20.878;2023-05-29T11:25:37;100741.90;;;29.29;33.59
50682;BME280;36779;52.168;20.878;2023-05-29T11:28:09;100745.45;;;29.17;33.22
50682;BME280;36779;52.168;20.878;2023-05-29T11:30:44;100742.48;;;28.88;33.01
50682;BME280;36779;52.168;20.878;2023-05-29T11:33:22;100741.77;;;28.82;33.19
50682;BME280;36779;52.168;20.878;2023-05-29T11:35:58;100740.35;;;28.75;32.86
50682;BME280;36779;52.168;20.878;2023-05-29T11:38:31;100740.73;;;28.70;32.99
50682;BME280;36779;52.168;20.878;2023-05-29T11:41:02;100740.67;;;28.48;32.58
50682;BME280;36779;52.168;20.878;2023-05-29T11:43:32;100738.74;;;28.04;32.36
50682;BME280;36779;52.168;20.878;2023-05-29T11:46:02;100737.55;;;27.75;32.50
50682;BME280;36779;52.168;20.878;2023-05-29T11:48:33;100734.14;;;27.66;32.65
50682;BME280;36779;52.168;20.878;2023-05-29T11:51:04;100733.47;;;27.60;32.73
50682;BME280;36779;52.168;20.878;2023-05-29T11:53:40;100727.23;;;27.50;32.59
50682;BME280;36779;52.168;20.878;2023-05-29T11:56:10;100725.84;;;27.69;32.96
50682;BME280;36779;52.168;20.878;2023-05-29T11:58:40;100724.65;;;27.96;32.99
50682;BME280;36779;52.168;20.878;2023-05-29T12:01:10;100729.48;;;28.26;33.04
50682;BME280;36779;52.168;20.878;2023-05-29T12:03:40;100735.25;;;28.61;33.17
50682;BME280;36779;52.168;20.878;2023-05-29T12:06:10;100734.81;;;28.67;32.52
50682;BME280;36779;52.168;20.878;2023-05-29T12:08:43;100727.95;;;28.21;32.04
50682;BME280;36779;52.168;20.878;2023-05-29T12:11:23;100726.30;;;27.74;32.00
50682;BME280;36779;52.168;20.878;2023-05-29T12:13:55;100720.71;;;27.51;32.18
50682;BME280;36779;52.168;20.878;2023-05-29T12:16:25;100719.95;;;27.48;32.24
50682;BME280;36779;52.168;20.878;2023-05-29T12:19:02;100719.70;;;27.56;32.31
50682;BME280;36779;52.168;20.878;2023-05-29T12:21:32;100718.81;;;27.76;32.48
50682;BME280;36779;52.168;20.878;2023-05-29T12:24:03;100715.49;;;27.71;32.20
50682;BME280;36779;52.168;20.878;2023-05-29T12:26:43;100712.15;;;27.57;32.08
50682;BME280;36779;52.168;20.878;2023-05-29T12:29:13;100707.97;;;27.55;32.25
50682;BME280;36779;52.168;20.878;2023-05-29T12:31:42;100704.29;;;27.51;32.10
50682;BME280;36779;52.168;20.878;2023-05-29T12:34:12;100702.11;;;27.40;31.93
50682;BME280;36779;52.168;20.878;2023-05-29T12:36:44;100701.77;;;27.04;31.69
50682;BME280;36779;52.168;20.878;2023-05-29T12:39:14;100702.69;;;26.94;31.97
50682;BME280;36779;52.168;20.878;2023-05-29T12:41:43;100701.25;;;26.92;31.99
50682;BME280;36779;52.168;20.878;2023-05-29T12:44:12;100698.46;;;26.77;31.80
50682;BME280;36779;52.168;20.878;2023-05-29T12:46:42;100691.13;;;26.69;32.11
50682;BME280;36779;52.168;20.878;2023-05-29T12:49:15;100690.75;;;26.70;32.09
50682;BME280;36779;52.168;20.878;2023-05-29T12:51:45;100692.59;;;26.72;32.14
50682;BME280;36779;52.168;20.878;2023-05-29T12:54:16;100689.89;;;26.71;32.19
50682;BME280;36779;52.168;20.878;2023-05-29T12:56:45;100690.36;;;26.83;32.49
50682;BME280;36779;52.168;20.878;2023-05-29T12:59:15;100685.33;;;27.00;32.28
50682;BME280;36779;52.168;20.878;2023-05-29T13:01:45;100680.89;;;27.00;32.19
50682;BME280;36779;52.168;20.878;2023-05-29T13:04:17;100682.53;;;26.68;31.93
50682;BME280;36779;52.168;20.878;2023-05-29T13:06:47;100679.09;;;26.42;31.91
50682;BME280;36779;52.168;20.878;2023-05-29T13:09:18;100676.25;;;26.20;31.93
50682;BME280;36779;52.168;20.878;2023-05-29T13:11:47;100675.64;;;25.97;31.96